createdAt,value
2023-03-13T00:01:18.423Z,95631.06
2023-03-13T00:03:47.942Z,95623.16
2023-03-13T00:06:16.916Z,95618.06
2023-03-13T00:08:45.691Z,95617.28
2023-03-13T00:11:15.253Z,95615.31
2023-03-13T00:13:44.139Z,95607.00
2023-03-13T00:16:14.527Z,95605.06
2023-03-13T00:18:48.363Z,95602.28
2023-03-13T00:21:17.207Z,95610.91
2023-03-13T00:23:46.024Z,95598.72
2023-03-13T00:26:15.791Z,95602.59
2023-03-13T00:28:46.013Z,95602.59
2023-03-13T00:31:16.106Z,95607.28
2023-03-13T00:33:48.396Z,95602.22
2023-03-13T00:36:18.686Z,95600.63
2023-03-13T00:38:47.352Z,95598.25
2023-03-13T00:41:17.791Z,95600.63
2023-03-13T00:43:46.810Z,95606.13
2023-03-13T00:46:17.095Z,95594.31
2023-03-13T00:48:45.163Z,95593.16
2023-03-13T00:51:15.578Z,95596.28
2023-03-13T00:53:44.720Z,95601.00
2023-03-13T00:56:15.274Z,95598.66
2023-03-13T00:58:45.287Z,95604.91
2023-03-13T01:01:16.894Z,95594.69
2023-03-13T01:03:47.656Z,95596.28
2023-03-13T01:06:19.012Z,95586.06
2023-03-13T01:08:47.094Z,95581.28
2023-03-13T01:11:17.444Z,95585.25
2023-03-13T01:13:46.920Z,95584.03
2023-03-13T01:16:17.478Z,95582.94
2023-03-13T01:18:49.454Z,95577.44
2023-03-13T01:21:20.825Z,95568.78
2023-03-13T01:23:49.355Z,95569.56
2023-03-13T01:26:17.401Z,95571.94
2023-03-13T01:31:17.687Z,95552.25
2023-03-13T01:33:47.504Z,95559.34
2023-03-13T01:36:15.970Z,95551.47
2023-03-13T01:38:48.554Z,95553.47
2023-03-13T01:41:16.448Z,95546.81
2023-03-13T01:43:45.470Z,95550.72
2023-03-13T01:46:16.522Z,95543.69
2023-03-13T01:48:51.727Z,95542.84
2023-03-13T01:51:24.938Z,95534.22
2023-03-13T01:54:00.534Z,95530.28
2023-03-13T01:56:35.676Z,95537.34
2023-03-13T01:59:07.005Z,95538.94
2023-03-13T02:01:36.211Z,95524.78
2023-03-13T02:04:05.686Z,95531.50
2023-03-13T02:06:40.448Z,95525.97
2023-03-13T02:09:15.730Z,95519.28
2023-03-13T02:11:50.745Z,95517.72
2023-03-13T02:14:22.789Z,95512.22
2023-03-13T02:16:52.109Z,95510.63
2023-03-13T02:19:28.964Z,95505.16
2023-03-13T02:22:07.963Z,95505.97
2023-03-13T02:24:48.409Z,95523.28
2023-03-13T02:27:17.790Z,95509.88
2023-03-13T02:29:46.672Z,95515.81
2023-03-13T02:32:15.560Z,95496.53
2023-03-13T02:34:46.723Z,95502.44
2023-03-13T02:37:16.468Z,95493.41
2023-03-13T02:39:50.498Z,95494.16
2023-03-13T02:42:23.011Z,95494.56
2023-03-13T02:44:52.223Z,95494.19
2023-03-13T02:47:21.647Z,95486.34
2023-03-13T02:49:51.056Z,95497.34
2023-03-13T02:52:25.699Z,95488.69
2023-03-13T02:54:59.867Z,95480.81
2023-03-13T02:57:29.786Z,95483.19
2023-03-13T02:59:57.630Z,95478.06
2023-03-13T03:02:25.733Z,95474.53
2023-03-13T03:04:53.569Z,95469.81
2023-03-13T03:07:21.433Z,95476.88
2023-03-13T03:09:49.213Z,95466.63
2023-03-13T03:12:17.067Z,95463.50
2023-03-13T03:14:46.421Z,95458.41
2023-03-13T03:17:14.372Z,95458.81
2023-03-13T03:19:42.201Z,95454.88
2023-03-13T03:22:10.083Z,95459.56
2023-03-13T03:24:37.927Z,95452.91
2023-03-13T03:27:06.182Z,95448.56
2023-03-13T03:29:33.956Z,95445.41
2023-03-13T03:32:03.251Z,95436.75
2023-03-13T03:34:31.258Z,95428.13
2023-03-13T03:36:59.133Z,95431.25
2023-03-13T03:39:26.983Z,95434.78
2023-03-13T03:41:54.849Z,95440.66
2023-03-13T03:44:22.669Z,95431.22
2023-03-13T03:46:53.832Z,95423.75
2023-03-13T03:49:23.094Z,95428.06
2023-03-13T03:51:51.005Z,95417.06
2023-03-13T03:54:18.855Z,95426.50
2023-03-13T03:56:46.709Z,95424.91
2023-03-13T03:59:14.546Z,95412.34
2023-03-13T04:01:43.144Z,95408.44
2023-03-13T04:04:11.193Z,95410.78
2023-03-13T04:06:40.411Z,95398.22
2023-03-13T04:09:08.229Z,95397.81
2023-03-13T04:11:36.061Z,95397.41
2023-03-13T04:14:03.990Z,95391.50
2023-03-13T04:16:31.935Z,95387.97
2023-03-13T04:18:59.798Z,95377.75
2023-03-13T04:21:27.802Z,95384.03
2023-03-13T04:23:56.998Z,95369.88
2023-03-13T04:26:24.839Z,95376.59
2023-03-13T04:28:52.836Z,95366.78
2023-03-13T04:31:20.709Z,95367.53
2023-03-13T04:33:48.638Z,95366.75
2023-03-13T04:36:16.502Z,95366.75
2023-03-13T04:38:44.428Z,95366.75
2023-03-13T04:41:13.632Z,95368.31
2023-03-13T04:43:41.494Z,95371.47
2023-03-13T04:46:09.415Z,95353.41
2023-03-13T04:48:37.323Z,95355.75
2023-03-13T04:51:05.600Z,95346.31
2023-03-13T04:53:33.458Z,95349.06
2023-03-13T04:56:01.290Z,95345.16
2023-03-13T04:58:30.581Z,95335.31
2023-03-13T05:00:58.472Z,95342.78
2023-03-13T05:03:26.340Z,95328.25
2023-03-13T05:05:54.147Z,95333.72
2023-03-13T05:08:22.016Z,95336.88
2023-03-13T05:10:49.870Z,95346.31
2023-03-13T05:13:17.697Z,95352.63
2023-03-13T05:15:46.890Z,95359.72
2023-03-13T05:18:14.723Z,95347.91
2023-03-13T05:20:42.552Z,95346.72
2023-03-13T05:23:10.396Z,95355.75
2023-03-13T05:25:38.319Z,95350.25
2023-03-13T05:28:06.176Z,95337.28
2023-03-13T05:30:34.027Z,95331.00
2023-03-13T05:33:03.309Z,95321.91
2023-03-13T05:35:31.193Z,95322.72
2023-03-13T05:37:59.199Z,95331.78
2023-03-13T05:40:26.989Z,95334.91
2023-03-13T05:42:54.847Z,95326.25
2023-03-13T05:45:22.913Z,95329.78
2023-03-13T05:47:50.776Z,95327.81
2023-03-13T05:50:20.097Z,95329.78
2023-03-13T05:52:47.986Z,95328.22
2023-03-13T05:55:15.892Z,95327.41
2023-03-13T05:57:45.989Z,95325.06
2023-03-13T06:00:15.785Z,95318.34
2023-03-13T06:02:44.305Z,95328.97
2023-03-13T06:05:12.445Z,95314.41
2023-03-13T06:07:41.644Z,95299.84
2023-03-13T06:10:10.797Z,95286.44
2023-03-13T06:12:38.649Z,95296.69
2023-03-13T06:15:11.694Z,95291.94
2023-03-13T06:17:42.003Z,95291.91
2023-03-13T06:20:11.692Z,95284.78
2023-03-13T06:22:41.444Z,95291.06
2023-03-13T06:25:10.732Z,95287.09
2023-03-13T06:27:42.240Z,95291.78
2023-03-13T06:30:11.922Z,95295.72
2023-03-13T06:32:39.974Z,95285.47
2023-03-13T06:35:08.406Z,95292.94
2023-03-13T06:37:36.605Z,95288.22
2023-03-13T06:40:07.634Z,95284.59
2023-03-13T06:42:35.483Z,95286.56
2023-03-13T06:45:04.088Z,95262.16
2023-03-13T06:47:32.305Z,95276.69
2023-03-13T06:50:00.171Z,95267.66
2023-03-13T06:52:41.181Z,95276.72
2023-03-13T06:55:13.904Z,95268.78
2023-03-13T06:57:41.807Z,95264.50
2023-03-13T07:00:12.459Z,95263.69
2023-03-13T07:02:40.357Z,95257.78
2023-03-13T07:05:09.444Z,95249.09
2023-03-13T07:07:37.339Z,95252.22
2023-03-13T07:10:05.933Z,95238.34
2023-03-13T07:12:35.652Z,95242.69
2023-03-13T07:15:03.819Z,95236.28
2023-03-13T07:17:31.752Z,95239.44
2023-03-13T07:20:03.099Z,95239.81
2023-03-13T07:22:30.985Z,95245.63
2023-03-13T07:24:58.985Z,95248.81
2023-03-13T07:27:26.948Z,95254.25
2023-03-13T07:29:56.285Z,95251.91
2023-03-13T07:32:24.301Z,95257.34
2023-03-13T07:34:52.208Z,95250.16
2023-03-13T07:37:20.077Z,95254.81
2023-03-13T07:39:47.935Z,95264.22
2023-03-13T07:42:15.763Z,95260.63
2023-03-13T07:44:43.596Z,95261.34
2023-03-13T07:47:12.800Z,95275.84
2023-03-13T07:49:43.875Z,95286.06
2023-03-13T07:52:11.717Z,95274.63
2023-03-13T07:54:39.606Z,95282.91
2023-03-13T07:57:07.487Z,95285.22
2023-03-13T07:59:35.336Z,95289.09
2023-03-13T08:02:03.790Z,95290.91
2023-03-13T08:04:32.997Z,95291.00
2023-03-13T08:07:00.874Z,95282.81
2023-03-13T08:09:28.706Z,95294.28
2023-03-13T08:11:56.556Z,95289.03
2023-03-13T08:14:24.639Z,95281.97
2023-03-13T08:16:52.554Z,95267.75
2023-03-13T08:19:20.438Z,95271.56
2023-03-13T08:21:49.664Z,95274.28
2023-03-13T08:24:17.466Z,95279.00
2023-03-13T08:26:45.323Z,95276.13
2023-03-13T08:29:15.463Z,95266.69
2023-03-13T08:31:48.620Z,95272.22
2023-03-13T08:34:18.202Z,95262.38
2023-03-13T08:36:47.037Z,95250.91
2023-03-13T08:39:18.897Z,95261.13
2023-03-13T08:41:47.304Z,95252.38
2023-03-13T08:44:17.603Z,95242.44
2023-03-13T08:46:46.059Z,95234.16
2023-03-13T08:49:14.307Z,95230.13
2023-03-13T08:51:42.156Z,95229.69
2023-03-13T08:54:10.353Z,95237.22
2023-03-13T08:56:40.950Z,95226.97
2023-03-13T08:59:08.833Z,95218.22
2023-03-13T09:01:38.101Z,95210.50
2023-03-13T09:04:07.004Z,95212.41
2023-03-13T09:06:36.464Z,95210.84
2023-03-13T09:09:05.607Z,95213.53
2023-03-13T09:11:34.515Z,95205.97
2023-03-13T09:14:03.845Z,95203.09
2023-03-13T09:16:33.315Z,95200.69
2023-03-13T09:19:02.264Z,95198.78
2023-03-13T09:21:32.112Z,95205.75
2023-03-13T09:24:00.624Z,95195.03
2023-03-13T09:26:29.930Z,95196.41
2023-03-13T09:28:58.509Z,95202.34
2023-03-13T09:31:30.440Z,95206.69
2023-03-13T09:33:59.289Z,95197.13
2023-03-13T09:36:28.428Z,95202.13
2023-03-13T09:38:58.403Z,95202.47
2023-03-13T09:41:33.995Z,95202.31
2023-03-13T09:44:08.589Z,95211.00
2023-03-13T09:46:49.377Z,95201.44
2023-03-13T09:49:31.086Z,95211.19
2023-03-13T09:52:12.710Z,95204.31
2023-03-13T09:54:47.861Z,95200.03
2023-03-13T09:57:23.817Z,95197.91
2023-03-13T09:59:59.890Z,95207.34
2023-03-13T10:02:34.737Z,95197.81
2023-03-13T10:05:17.820Z,95208.44
2023-03-13T10:07:45.705Z,95205.59
2023-03-13T10:10:18.042Z,95193.22
2023-03-13T10:12:48.150Z,95201.56
2023-03-13T10:15:36.549Z,95201.81
2023-03-13T10:18:17.351Z,95198.34
2023-03-13T10:20:48.861Z,95193.50
2023-03-13T10:23:23.140Z,95197.84
2023-03-13T10:25:51.111Z,95191.44
2023-03-13T10:28:22.494Z,95180.09
2023-03-13T10:30:52.994Z,95183.84
2023-03-13T10:33:25.576Z,95178.28
2023-03-13T10:36:08.377Z,95188.91
2023-03-13T10:38:47.432Z,95181.25
2023-03-13T10:41:27.809Z,95191.31
2023-03-13T10:44:00.030Z,95185.25
2023-03-13T10:46:30.338Z,95196.69
2023-03-13T10:49:04.620Z,95190.34
2023-03-13T10:51:38.720Z,95185.41
2023-03-13T10:54:16.987Z,95182.72
2023-03-13T10:56:44.959Z,95176.25
2023-03-13T10:59:24.281Z,95178.88
2023-03-13T11:01:53.484Z,95180.69
2023-03-13T11:04:31.546Z,95180.69
2023-03-13T11:07:03.704Z,95189.63
2023-03-13T11:09:32.293Z,95183.81
2023-03-13T11:12:06.106Z,95188.53
2023-03-13T11:14:33.992Z,95180.78
2023-03-13T11:17:10.859Z,95171.44
2023-03-13T11:20:04.264Z,95173.47
2023-03-13T11:22:44.459Z,95177.41
2023-03-13T11:25:33.219Z,95162.28
2023-03-13T11:28:15.995Z,95153.16
2023-03-13T11:31:06.525Z,95157.53
2023-03-13T11:33:53.156Z,95150.84
2023-03-13T11:36:28.733Z,95131.22
2023-03-13T11:39:08.963Z,95133.69
2023-03-13T11:41:56.525Z,95128.34
2023-03-13T11:44:32.183Z,95120.91
2023-03-13T11:47:16.229Z,95122.00
2023-03-13T11:50:12.429Z,95120.78
2023-03-13T11:52:57.470Z,95120.69
2023-03-13T11:55:47.661Z,95114.84
2023-03-13T11:58:35.434Z,95114.41
2023-03-13T12:01:10.046Z,95114.97
2023-03-13T12:03:46.178Z,95119.19
2023-03-13T12:06:28.699Z,95124.13
2023-03-13T12:09:07.856Z,95112.97
2023-03-13T12:11:43.772Z,95109.06
2023-03-13T12:14:19.906Z,95108.81
2023-03-13T12:16:54.916Z,95110.81
2023-03-13T12:19:31.866Z,95096.38
2023-03-13T12:22:14.836Z,95102.56
2023-03-13T12:24:53.419Z,95084.59
2023-03-13T12:27:32.773Z,95084.28
2023-03-13T12:30:06.495Z,95063.38
2023-03-13T12:32:41.197Z,95050.53
2023-03-13T12:35:20.845Z,95040.00
2023-03-13T12:37:56.208Z,95036.22
2023-03-13T12:40:34.764Z,95016.78
2023-03-13T12:43:10.598Z,95006.59
2023-03-13T12:45:52.602Z,94994.47
2023-03-13T12:48:47.095Z,95005.06
2023-03-13T12:51:38.138Z,94994.34
2023-03-13T12:54:43.985Z,94984.72
2023-03-13T12:57:43.409Z,94977.09
2023-03-13T13:00:19.458Z,94974.69
2023-03-13T13:02:48.714Z,94973.06
2023-03-13T13:05:22.561Z,94958.84
2023-03-13T13:07:56.077Z,94956.34
2023-03-13T13:10:27.455Z,94959.13
2023-03-13T13:13:30.741Z,94945.00
2023-03-13T13:16:06.299Z,94933.38
2023-03-13T13:18:35.597Z,94939.75
2023-03-13T13:21:26.472Z,94938.50
2023-03-13T13:23:56.542Z,94959.03
2023-03-13T13:26:51.381Z,94943.03
2023-03-13T13:29:58.929Z,94938.06
2023-03-13T13:32:47.152Z,94931.84
2023-03-13T13:35:28.895Z,94926.09
2023-03-13T13:38:40.130Z,94915.72
2023-03-13T13:41:38.691Z,94899.53
2023-03-13T13:44:29.237Z,94897.34
2023-03-13T13:47:01.831Z,94883.06
2023-03-13T13:49:38.769Z,94884.28
2023-03-13T13:52:41.072Z,94852.81
2023-03-13T13:55:42.437Z,94853.56
2023-03-13T13:58:18.555Z,94855.88
2023-03-13T14:00:52.733Z,94847.81
2023-03-13T14:03:23.822Z,94843.94
2023-03-13T14:05:56.657Z,94853.88
2023-03-13T14:08:30.777Z,94847.25
2023-03-13T14:11:19.244Z,94832.63
2023-03-13T14:14:07.099Z,94829.19
2023-03-13T14:16:35.050Z,94820.81
2023-03-13T14:19:03.029Z,94816.78
2023-03-13T14:21:33.139Z,94810.88
2023-03-13T14:24:01.060Z,94803.81
2023-03-13T14:26:30.700Z,94806.63
2023-03-13T14:29:02.855Z,94794.22
2023-03-13T14:31:35.871Z,94795.44
2023-03-13T14:34:06.694Z,94787.94
2023-03-13T14:36:50.109Z,94786.44
2023-03-13T14:39:36.732Z,94775.56
2023-03-13T14:42:10.718Z,94772.34
2023-03-13T14:44:40.230Z,94762.22
2023-03-13T14:47:15.515Z,94764.13
2023-03-13T14:49:47.292Z,94755.25
2023-03-13T14:52:25.019Z,94760.50
2023-03-13T14:54:55.519Z,94751.38
2023-03-13T14:57:27.043Z,94738.28
2023-03-13T14:59:58.153Z,94733.56
2023-03-13T15:02:29.603Z,94722.75
2023-03-13T15:05:00.207Z,94713.78
2023-03-13T15:07:38.776Z,94711.59
2023-03-13T15:10:20.737Z,94698.56
2023-03-13T15:12:51.692Z,94695.88
2023-03-13T15:15:19.845Z,94687.53
2023-03-13T15:17:47.826Z,94687.63
2023-03-13T15:20:17.552Z,94686.91
2023-03-13T15:22:47.381Z,94670.38
2023-03-13T15:25:18.635Z,94665.44
2023-03-13T15:27:46.941Z,94653.81
2023-03-13T15:30:17.447Z,94653.81
2023-03-13T15:32:47.061Z,94647.13
2023-03-13T15:35:31.585Z,94633.75
2023-03-13T15:38:02.851Z,94618.53
2023-03-13T15:40:31.813Z,94618.03
2023-03-13T15:43:00.339Z,94613.44
2023-03-13T15:45:28.255Z,94608.38
2023-03-13T15:47:56.224Z,94599.25
2023-03-13T15:50:29.698Z,94592.00
2023-03-13T15:52:57.912Z,94586.75
2023-03-13T15:55:30.147Z,94590.03
2023-03-13T15:57:58.033Z,94577.88
2023-03-13T16:00:27.897Z,94560.97
2023-03-13T16:02:55.842Z,94568.25
2023-03-13T16:05:23.693Z,94559.59
2023-03-13T16:07:51.599Z,94553.66
2023-03-13T16:10:24.660Z,94548.03
2023-03-13T16:12:54.708Z,94541.41
2023-03-13T16:15:22.935Z,94533.66
2023-03-13T16:17:50.923Z,94537.84
2023-03-13T16:20:21.660Z,94535.00
2023-03-13T16:22:51.173Z,94539.06
2023-03-13T16:25:20.928Z,94534.69
2023-03-13T16:27:49.045Z,94529.41
2023-03-13T16:30:24.017Z,94522.28
2023-03-13T16:32:52.112Z,94531.94
2023-03-13T16:35:20.738Z,94523.53
2023-03-13T16:37:50.750Z,94523.41
2023-03-13T16:40:21.571Z,94517.19
2023-03-13T16:42:49.573Z,94518.56
2023-03-13T16:45:19.800Z,94511.56
2023-03-13T16:47:48.179Z,94506.25
2023-03-13T16:50:24.196Z,94506.97
2023-03-13T16:52:53.402Z,94496.13
2023-03-13T16:55:24.651Z,94491.25
2023-03-13T16:57:55.046Z,94487.50
2023-03-13T17:00:26.664Z,94479.53
2023-03-13T17:02:56.759Z,94478.31
2023-03-13T17:05:25.385Z,94474.66
2023-03-13T17:07:53.602Z,94467.09
2023-03-13T17:10:24.927Z,94465.78
2023-03-13T17:12:53.227Z,94463.63
2023-03-13T17:15:21.803Z,94456.22
2023-03-13T17:17:52.872Z,94441.69
2023-03-13T17:20:23.405Z,94443.72
2023-03-13T17:22:51.338Z,94441.66
2023-03-13T17:25:19.770Z,94435.16
2023-03-13T17:27:48.535Z,94434.25
2023-03-13T17:30:21.592Z,94448.22
2023-03-13T17:32:51.020Z,94437.38
2023-03-13T17:35:21.172Z,94431.81
2023-03-13T17:37:50.055Z,94441.91
2023-03-13T17:40:21.322Z,94436.97
2023-03-13T17:42:49.499Z,94439.94
2023-03-13T17:45:18.488Z,94433.53
2023-03-13T17:47:49.136Z,94419.09
2023-03-13T17:50:21.470Z,94423.44
2023-03-13T17:52:49.752Z,94424.25
2023-03-13T17:55:19.318Z,94412.94
2023-03-13T17:57:48.305Z,94409.84
2023-03-13T18:00:22.197Z,94401.16
2023-03-13T18:02:50.200Z,94405.34
2023-03-13T18:05:19.689Z,94395.00
2023-03-13T18:07:48.414Z,94382.00
2023-03-13T18:10:22.213Z,94383.84
2023-03-13T18:12:51.338Z,94374.56
2023-03-13T18:15:20.224Z,94369.63
2023-03-13T18:17:48.526Z,94368.41
2023-03-13T18:20:20.391Z,94365.31
2023-03-13T18:22:48.303Z,94359.50
2023-03-13T18:25:16.633Z,94344.75
2023-03-13T18:27:44.785Z,94351.41
2023-03-13T18:30:22.674Z,94332.69
2023-03-13T18:32:51.137Z,94316.88
2023-03-13T18:35:20.914Z,94318.59
2023-03-13T18:37:53.279Z,94313.94
2023-03-13T18:40:24.274Z,94320.28
2023-03-13T18:42:52.473Z,94302.78
2023-03-13T18:45:22.384Z,94302.22
2023-03-13T18:47:50.746Z,94305.81
2023-03-13T18:50:24.918Z,94301.97
2023-03-13T18:52:53.235Z,94283.72
2023-03-13T18:55:21.339Z,94270.69
2023-03-13T18:57:50.087Z,94286.91
2023-03-13T19:00:21.038Z,94277.94
2023-03-13T19:02:49.583Z,94282.91
2023-03-13T19:05:18.246Z,94271.63
2023-03-13T19:07:48.168Z,94276.25
2023-03-13T19:10:21.581Z,94278.13
2023-03-13T19:12:49.437Z,94266.34
2023-03-13T19:15:18.395Z,94244.38
2023-03-13T19:17:46.614Z,94246.53
2023-03-13T19:20:17.501Z,94227.34
2023-03-13T19:22:45.466Z,94224.66
2023-03-13T19:25:17.163Z,94204.28
2023-03-13T19:27:45.885Z,94203.19
2023-03-13T19:30:18.379Z,94208.81
2023-03-13T19:32:46.470Z,94227.28
2023-03-13T19:35:18.632Z,94221.56
2023-03-13T19:37:46.693Z,94232.41
2023-03-13T19:40:21.610Z,94222.47
2023-03-13T19:42:49.515Z,94219.88
2023-03-13T19:45:19.737Z,94217.09
2023-03-13T19:47:47.623Z,94224.38
2023-03-13T19:50:21.131Z,94207.66
2023-03-13T19:52:49.304Z,94244.28
2023-03-13T19:55:18.862Z,94261.75
2023-03-13T19:57:46.826Z,94277.81
2023-03-13T20:00:21.537Z,94346.25
2023-03-13T20:02:49.457Z,94407.03
2023-03-13T20:05:17.520Z,94463.97
2023-03-13T20:07:45.549Z,94485.78
2023-03-13T20:10:14.260Z,94426.94
2023-03-13T20:12:43.504Z,94429.16
2023-03-13T20:15:12.695Z,94428.47
2023-03-13T20:17:40.596Z,94428.19
2023-03-13T20:20:09.749Z,94403.91
2023-03-13T20:22:37.700Z,94399.38
2023-03-13T20:25:07.545Z,94362.44
2023-03-13T20:27:35.569Z,94364.00
2023-03-13T20:30:05.712Z,94352.63
2023-03-13T20:32:34.394Z,94368.41
2023-03-13T20:35:02.315Z,94377.94
2023-03-13T20:37:30.200Z,94380.16
2023-03-13T20:39:58.111Z,94385.06
2023-03-13T20:42:26.054Z,94376.09
2023-03-13T20:44:55.393Z,94368.34
2023-03-13T20:47:24.811Z,94364.63
2023-03-13T20:49:52.681Z,94356.88
2023-03-13T20:52:20.615Z,94359.34
2023-03-13T20:54:48.534Z,94353.69
2023-03-13T20:57:18.009Z,94334.03
2023-03-13T20:59:46.167Z,94329.06
2023-03-13T21:02:14.098Z,94354.50
2023-03-13T21:04:43.366Z,94389.69
2023-03-13T21:07:11.330Z,94455.72
2023-03-13T21:09:39.271Z,94484.72
2023-03-13T21:12:07.480Z,94527.38
2023-03-13T21:14:36.420Z,94566.91
2023-03-13T21:17:04.484Z,94613.03
2023-03-13T21:19:34.112Z,94663.91
2023-03-13T21:22:03.365Z,94672.78
2023-03-13T21:24:32.464Z,94645.44
2023-03-13T21:27:00.365Z,94642.16
2023-03-13T21:29:28.445Z,94643.88
2023-03-13T21:31:56.442Z,94666.47
2023-03-13T21:34:24.386Z,94655.72
2023-03-13T21:36:52.596Z,94662.88
2023-03-13T21:39:22.847Z,94665.44
2023-03-13T21:41:50.684Z,94662.00
2023-03-13T21:44:19.654Z,94651.28
2023-03-13T21:46:48.570Z,94658.44
2023-03-13T21:49:16.702Z,94658.72
2023-03-13T21:51:44.593Z,94662.34
2023-03-13T21:54:12.450Z,94643.22
2023-03-13T21:56:41.692Z,94644.00
2023-03-13T21:59:09.759Z,94635.28
2023-03-13T22:01:37.643Z,94648.69
2023-03-13T22:04:05.824Z,94648.00
2023-03-13T22:06:33.704Z,94683.78
2023-03-13T22:09:02.920Z,94681.84
2023-03-13T22:11:31.077Z,94695.97
2023-03-13T22:14:00.282Z,94688.66
2023-03-13T22:16:28.345Z,94683.09
2023-03-13T22:18:56.695Z,94682.78
2023-03-13T22:21:24.676Z,94687.91
2023-03-13T22:23:52.550Z,94676.84
2023-03-13T22:26:20.441Z,94645.16
2023-03-13T22:28:48.306Z,94618.81
2023-03-13T22:31:18.493Z,94585.31
2023-03-13T22:33:46.314Z,94578.72
2023-03-13T22:36:14.247Z,94582.72
2023-03-13T22:38:42.077Z,94594.09
2023-03-13T22:41:12.515Z,94596.38
2023-03-13T22:43:40.533Z,94589.72
2023-03-13T22:46:08.715Z,94555.16
2023-03-13T22:48:39.720Z,94557.06
2023-03-13T22:51:10.698Z,94549.28
2023-03-13T22:53:41.060Z,94531.50
2023-03-13T22:56:10.915Z,94505.81
2023-03-13T22:58:40.345Z,94539.03
2023-03-13T23:01:09.272Z,94530.19
2023-03-13T23:03:38.540Z,94545.09
2023-03-13T23:06:07.696Z,94547.31
2023-03-13T23:08:35.720Z,94542.34
2023-03-13T23:11:05.332Z,94527.84
2023-03-13T23:13:33.547Z,94504.53
2023-03-13T23:16:01.620Z,94498.25
2023-03-13T23:18:29.593Z,94484.03
2023-03-13T23:20:58.767Z,94486.72
2023-03-13T23:23:26.697Z,94482.34
2023-03-13T23:25:54.594Z,94469.38
2023-03-13T23:28:22.527Z,94456.81
2023-03-13T23:30:50.385Z,94464.22
2023-03-13T23:33:18.245Z,94451.13
2023-03-13T23:35:46.863Z,94444.91
2023-03-13T23:38:18.345Z,94441.13
2023-03-13T23:40:46.244Z,94450.63
2023-03-13T23:43:14.049Z,94461.50
2023-03-13T23:45:41.871Z,94452.69
2023-03-13T23:48:09.656Z,94460.75
2023-03-13T23:50:37.643Z,94475.97
2023-03-13T23:53:05.443Z,94492.47
2023-03-13T23:55:34.656Z,94512.03
2023-03-13T23:58:02.518Z,94519.84
